Lexington Park, Maryland
Current Conditions -  °F | °C
As of 11:52 AM on Saturday 20 Dec 2014 (Local Time) from KNHK Reporting Station
Overcast Overcast  
Wind Chill: 34°   Ceiling: 20000
Heat Index: 34°   Visibility: 10mi
Dew Point: 23°   Wind: 3mph
Humidity: 64%   Direction: 290°WNW
Pressure: 30.3"   Gusts: NA
Location:  38.27°N, 76.45°W
Report Text: KNHK 201652Z 29003KT 10SM SCT150 OVC200 01/M05 A3030 RMK AO2 SLP260 T00111050
Loading
Personal Weather Stations






























Interactive Weather Map New forecast layout! Learn more

10-Day Weather Forecast

Advertisements
Track Severe Weather on mobile